sensor_id;sensor_type;location;lat;lon;timestamp;P1;durP1;ratioP1;P2;durP2;ratioP2
25129;SDS011;13308;50.860;13.664;2022-11-20T06:55:47;2.72;;;2.42;;
25129;SDS011;13308;50.860;13.664;2022-11-20T06:58:13;3.25;;;2.92;;
25129;SDS011;13308;50.860;13.664;2022-11-20T07:00:40;4.13;;;2.83;;
25129;SDS011;13308;50.860;13.664;2022-11-20T07:03:06;8.68;;;3.05;;
25129;SDS011;13308;50.860;13.664;2022-11-20T07:05:32;5.72;;;2.75;;
25129;SDS011;13308;50.860;13.664;2022-11-20T07:07:58;6.32;;;3.50;;
25129;SDS011;13308;50.860;13.664;2022-11-20T07:10:23;5.18;;;3.38;;
25129;SDS011;13308;50.860;13.664;2022-11-20T07:12:50;7.95;;;3.53;;
25129;SDS011;13308;50.860;13.664;2022-11-20T07:15:16;4.88;;;3.58;;
25129;SDS011;13308;50.860;13.664;2022-11-20T07:17:42;8.60;;;4.55;;
25129;SDS011;13308;50.860;13.664;2022-11-20T07:20:08;6.18;;;4.03;;
25129;SDS011;13308;50.860;13.664;2022-11-20T07:22:33;9.40;;;5.40;;
25129;SDS011;13308;50.860;13.664;2022-11-20T07:24:59;7.78;;;4.60;;
25129;SDS011;13308;50.860;13.664;2022-11-20T07:27:24;7.05;;;3.72;;
25129;SDS011;13308;50.860;13.664;2022-11-20T07:29:49;8.98;;;5.63;;
25129;SDS011;13308;50.860;13.664;2022-11-20T07:32:15;7.25;;;4.00;;
25129;SDS011;13308;50.860;13.664;2022-11-20T07:34:40;6.30;;;4.30;;
25129;SDS011;13308;50.860;13.664;2022-11-20T07:37:06;8.60;;;5.22;;
25129;SDS011;13308;50.860;13.664;2022-11-20T07:39:31;6.15;;;4.75;;
25129;SDS011;13308;50.860;13.664;2022-11-20T07:41:56;16.17;;;7.43;;
25129;SDS011;13308;50.860;13.664;2022-11-20T07:44:22;21.65;;;11.93;;
25129;SDS011;13308;50.860;13.664;2022-11-20T07:46:47;16.83;;;9.20;;
25129;SDS011;13308;50.860;13.664;2022-11-20T07:49:12;20.90;;;11.18;;
25129;SDS011;13308;50.860;13.664;2022-11-20T07:51:38;23.73;;;13.35;;
25129;SDS011;13308;50.860;13.664;2022-11-20T07:54:03;11.68;;;6.95;;
25129;SDS011;13308;50.860;13.664;2022-11-20T07:56:28;15.75;;;8.80;;
25129;SDS011;13308;50.860;13.664;2022-11-20T07:58:54;15.25;;;8.85;;
25129;SDS011;13308;50.860;13.664;2022-11-20T08:01:19;9.98;;;6.07;;
25129;SDS011;13308;50.860;13.664;2022-11-20T08:03:44;7.80;;;4.85;;
25129;SDS011;13308;50.860;13.664;2022-11-20T08:06:10;7.45;;;4.65;;
25129;SDS011;13308;50.860;13.664;2022-11-20T08:08:35;10.02;;;5.28;;
25129;SDS011;13308;50.860;13.664;2022-11-20T08:11:00;11.25;;;7.30;;
25129;SDS011;13308;50.860;13.664;2022-11-20T08:13:44;34.38;;;18.27;;
25129;SDS011;13308;50.860;13.664;2022-11-20T08:16:28;9.65;;;6.60;;
25129;SDS011;13308;50.860;13.664;2022-11-20T08:18:54;7.03;;;3.88;;
25129;SDS011;13308;50.860;13.664;2022-11-20T08:21:19;6.35;;;4.40;;
25129;SDS011;13308;50.860;13.664;2022-11-20T08:23:45;7.57;;;4.32;;
25129;SDS011;13308;50.860;13.664;2022-11-20T08:26:10;7.97;;;4.63;;
25129;SDS011;13308;50.860;13.664;2022-11-20T08:28:35;12.65;;;6.47;;
25129;SDS011;13308;50.860;13.664;2022-11-20T08:31:01;7.57;;;4.78;;
25129;SDS011;13308;50.860;13.664;2022-11-20T08:33:27;10.18;;;5.53;;
25129;SDS011;13308;50.860;13.664;2022-11-20T08:35:57;6.82;;;4.60;;
25129;SDS011;13308;50.860;13.664;2022-11-20T08:38:26;9.40;;;5.65;;
25129;SDS011;13308;50.860;13.664;2022-11-20T08:40:51;8.18;;;5.40;;
25129;SDS011;13308;50.860;13.664;2022-11-20T08:43:35;5.60;;;4.22;;
25129;SDS011;13308;50.860;13.664;2022-11-20T08:46:01;5.40;;;3.90;;
25129;SDS011;13308;50.860;13.664;2022-11-20T08:48:26;10.55;;;5.57;;
25129;SDS011;13308;50.860;13.664;2022-11-20T08:50:51;12.65;;;7.40;;
25129;SDS011;13308;50.860;13.664;2022-11-20T08:53:16;6.93;;;5.07;;
25129;SDS011;13308;50.860;13.664;2022-11-20T08:55:42;10.48;;;4.93;;
25129;SDS011;13308;50.860;13.664;2022-11-20T08:58:07;23.70;;;11.02;;
25129;SDS011;13308;50.860;13.664;2022-11-20T09:00:33;25.55;;;12.02;;
25129;SDS011;13308;50.860;13.664;2022-11-20T09:02:59;15.65;;;7.30;;
25129;SDS011;13308;50.860;13.664;2022-11-20T09:05:26;14.15;;;7.60;;
25129;SDS011;13308;50.860;13.664;2022-11-20T09:07:51;8.65;;;5.88;;
25129;SDS011;13308;50.860;13.664;2022-11-20T09:10:17;24.45;;;12.20;;
25129;SDS011;13308;50.860;13.664;2022-11-20T09:12:42;7.70;;;4.35;;
25129;SDS011;13308;50.860;13.664;2022-11-20T09:15:07;7.18;;;5.30;;
25129;SDS011;13308;50.860;13.664;2022-11-20T09:17:33;7.10;;;4.35;;
25129;SDS011;13308;50.860;13.664;2022-11-20T09:19:58;22.83;;;9.27;;
25129;SDS011;13308;50.860;13.664;2022-11-20T09:22:24;42.45;;;11.93;;
25129;SDS011;13308;50.860;13.664;2022-11-20T09:24:49;47.10;;;15.40;;
25129;SDS011;13308;50.860;13.664;2022-11-20T09:27:14;108.82;;;32.42;;
25129;SDS011;13308;50.860;13.664;2022-11-20T09:29:44;30.88;;;10.32;;
25129;SDS011;13308;50.860;13.664;2022-11-20T09:32:09;18.90;;;8.10;;
25129;SDS011;13308;50.860;13.664;2022-11-20T09:34:35;10.90;;;5.47;;
25129;SDS011;13308;50.860;13.664;2022-11-20T09:37:00;8.90;;;5.78;;
25129;SDS011;13308;50.860;13.664;2022-11-20T09:39:25;8.23;;;4.78;;
25129;SDS011;13308;50.860;13.664;2022-11-20T09:41:56;7.03;;;4.80;;
25129;SDS011;13308;50.860;13.664;2022-11-20T09:47:44;6.15;;;3.20;;
25129;SDS011;13308;50.860;13.664;2022-11-20T09:55:20;3.28;;;2.05;;
25129;SDS011;13308;50.860;13.664;2022-11-20T09:57:46;2.83;;;2.05;;
25129;SDS011;13308;50.860;13.664;2022-11-20T10:00:15;2.30;;;1.83;;
25129;SDS011;13308;50.860;13.664;2022-11-20T10:02:47;3.88;;;2.60;;
25129;SDS011;13308;50.860;13.664;2022-11-20T10:05:18;2.20;;;1.80;;
25129;SDS011;13308;50.860;13.664;2022-11-20T10:07:48;3.10;;;2.00;;
25129;SDS011;13308;50.860;13.664;2022-11-20T10:10:40;2.92;;;2.20;;
25129;SDS011;13308;50.860;13.664;2022-11-20T10:13:17;3.08;;;2.58;;
25129;SDS011;13308;50.860;13.664;2022-11-20T10:18:58;3.25;;;2.55;;
25129;SDS011;13308;50.860;13.664;2022-11-20T10:21:54;4.60;;;2.58;;
25129;SDS011;13308;50.860;13.664;2022-11-20T10:24:37;4.22;;;3.13;;
25129;SDS011;13308;50.860;13.664;2022-11-20T10:30:06;2.97;;;2.58;;
25129;SDS011;13308;50.860;13.664;2022-11-20T10:32:38;2.88;;;2.22;;
25129;SDS011;13308;50.860;13.664;2022-11-20T10:37:43;4.50;;;2.05;;
25129;SDS011;13308;50.860;13.664;2022-11-20T10:42:55;1.77;;;1.67;;
25129;SDS011;13308;50.860;13.664;2022-11-20T10:47:50;2.20;;;1.85;;
25129;SDS011;13308;50.860;13.664;2022-11-20T10:50:19;2.88;;;1.92;;
25129;SDS011;13308;50.860;13.664;2022-11-20T10:55:23;3.35;;;2.50;;
25129;SDS011;13308;50.860;13.664;2022-11-20T10:58:14;3.50;;;2.55;;
25129;SDS011;13308;50.860;13.664;2022-11-20T11:00:46;3.22;;;2.42;;
25129;SDS011;13308;50.860;13.664;2022-11-20T11:05:58;3.58;;;2.50;;
25129;SDS011;13308;50.860;13.664;2022-11-20T11:08:32;3.15;;;2.47;;
25129;SDS011;13308;50.860;13.664;2022-11-20T11:11:07;3.03;;;2.42;;
25129;SDS011;13308;50.860;13.664;2022-11-20T11:13:42;3.70;;;3.10;;
25129;SDS011;13308;50.860;13.664;2022-11-20T11:16:16;4.78;;;3.10;;
25129;SDS011;13308;50.860;13.664;2022-11-20T11:18:45;4.00;;;2.92;;
25129;SDS011;13308;50.860;13.664;2022-11-20T11:21:10;5.88;;;3.38;;
25129;SDS011;13308;50.860;13.664;2022-11-20T11:23:37;5.30;;;3.70;;
25129;SDS011;13308;50.860;13.664;2022-11-20T11:26:06;4.63;;;3.28;;
25129;SDS011;13308;50.860;13.664;2022-11-20T11:31:33;4.90;;;3.30;;
25129;SDS011;13308;50.860;13.664;2022-11-20T11:36:32;5.97;;;3.85;;
25129;SDS011;13308;50.860;13.664;2022-11-20T11:38:59;4.40;;;3.72;;
25129;SDS011;13308;50.860;13.664;2022-11-20T11:41:28;6.80;;;4.38;;
25129;SDS011;13308;50.860;13.664;2022-11-20T11:43:58;6.28;;;3.88;;
25129;SDS011;13308;50.860;13.664;2022-11-20T11:46:52;5.57;;;4.00;;
25129;SDS011;13308;50.860;13.664;2022-11-20T11:49:20;7.97;;;4.93;;
25129;SDS011;13308;50.860;13.664;2022-11-20T11:51:56;7.93;;;5.03;;
25129;SDS011;13308;50.860;13.664;2022-11-20T11:54:32;4.95;;;3.60;;
25129;SDS011;13308;50.860;13.664;2022-11-20T11:57:03;5.68;;;3.60;;
25129;SDS011;13308;50.860;13.664;2022-11-20T11:59:44;4.60;;;3.08;;
25129;SDS011;13308;50.860;13.664;2022-11-20T12:02:25;8.20;;;5.35;;
25129;SDS011;13308;50.860;13.664;2022-11-20T12:07:59;9.88;;;5.63;;
25129;SDS011;13308;50.860;13.664;2022-11-20T12:13:15;7.78;;;4.78;;
25129;SDS011;13308;50.860;13.664;2022-11-20T12:15:46;7.93;;;4.95;;
25129;SDS011;13308;50.860;13.664;2022-11-20T12:18:17;6.80;;;4.43;;
25129;SDS011;13308;50.860;13.664;2022-11-20T12:21:03;8.25;;;5.22;;
25129;SDS011;13308;50.860;13.664;2022-11-20T12:23:51;7.60;;;5.90;;
25129;SDS011;13308;50.860;13.664;2022-11-20T12:29:11;10.57;;;5.18;;
25129;SDS011;13308;50.860;13.664;2022-11-20T12:37:22;13.18;;;5.95;;
25129;SDS011;13308;50.860;13.664;2022-11-20T12:39:58;9.95;;;5.93;;
25129;SDS011;13308;50.860;13.664;2022-11-20T12:42:42;12.63;;;5.75;;
25129;SDS011;13308;50.860;13.664;2022-11-20T12:51:09;10.68;;;5.90;;
25129;SDS011;13308;50.860;13.664;2022-11-20T12:54:04;7.05;;;5.32;;
25129;SDS011;13308;50.860;13.664;2022-11-20T13:05:29;10.88;;;6.20;;
25129;SDS011;13308;50.860;13.664;2022-11-20T13:08:02;15.50;;;7.70;;
25129;SDS011;13308;50.860;13.664;2022-11-20T13:13:04;12.73;;;6.85;;
25129;SDS011;13308;50.860;13.664;2022-11-20T13:18:22;13.38;;;6.43;;
25129;SDS011;13308;50.860;13.664;2022-11-20T13:20:48;19.73;;;7.20;;
25129;SDS011;13308;50.860;13.664;2022-11-20T13:23:32;15.77;;;7.75;;
25129;SDS011;13308;50.860;13.664;2022-11-20T13:26:05;15.30;;;6.32;;
25129;SDS011;13308;50.860;13.664;2022-11-20T13:28:38;16.80;;;7.60;;
25129;SDS011;13308;50.860;13.664;2022-11-20T13:31:09;16.23;;;7.93;;
25129;SDS011;13308;50.860;13.664;2022-11-20T13:33:51;15.98;;;7.38;;
25129;SDS011;13308;50.860;13.664;2022-11-20T13:36:23;19.10;;;8.00;;
25129;SDS011;13308;50.860;13.664;2022-11-20T13:38:51;17.05;;;7.80;;
25129;SDS011;13308;50.860;13.664;2022-11-20T13:41:28;19.10;;;7.97;;
25129;SDS011;13308;50.860;13.664;2022-11-20T13:44:34;18.50;;;8.07;;
25129;SDS011;13308;50.860;13.664;2022-11-20T13:47:00;16.45;;;7.57;;
25129;SDS011;13308;50.860;13.664;2022-11-20T13:49:32;17.23;;;8.80;;
25129;SDS011;13308;50.860;13.664;2022-11-20T13:55:12;18.02;;;7.43;;
25129;SDS011;13308;50.860;13.664;2022-11-20T14:00:28;18.08;;;7.40;;
25129;SDS011;13308;50.860;13.664;2022-11-20T14:05:38;17.02;;;8.05;;
25129;SDS011;13308;50.860;13.664;2022-11-20T14:08:06;18.38;;;7.93;;
25129;SDS011;13308;50.860;13.664;2022-11-20T14:10:38;20.05;;;8.43;;
25129;SDS011;13308;50.860;13.664;2022-11-20T14:13:19;18.48;;;8.55;;
25129;SDS011;13308;50.860;13.664;2022-11-20T14:15:45;19.08;;;8.52;;
25129;SDS011;13308;50.860;13.664;2022-11-20T14:18:20;16.17;;;7.55;;
25129;SDS011;13308;50.860;13.664;2022-11-20T14:20:47;17.98;;;8.27;;
25129;SDS011;13308;50.860;13.664;2022-11-20T14:23:12;15.50;;;7.30;;
25129;SDS011;13308;50.860;13.664;2022-11-20T14:25:48;16.33;;;7.68;;
25129;SDS011;13308;50.860;13.664;2022-11-20T14:28:18;17.23;;;8.57;;
25129;SDS011;13308;50.860;13.664;2022-11-20T14:30:50;21.20;;;8.75;;
25129;SDS011;13308;50.860;13.664;2022-11-20T14:33:16;20.15;;;7.35;;
25129;SDS011;13308;50.860;13.664;2022-11-20T14:35:46;19.85;;;7.97;;
25129;SDS011;13308;50.860;13.664;2022-11-20T14:38:14;19.13;;;7.25;;
25129;SDS011;13308;50.860;13.664;2022-11-20T14:40:42;18.70;;;7.30;;
25129;SDS011;13308;50.860;13.664;2022-11-20T14:43:18;15.15;;;7.45;;
25129;SDS011;13308;50.860;13.664;2022-11-20T14:46:02;14.70;;;6.78;;
25129;SDS011;13308;50.860;13.664;2022-11-20T14:48:31;10.98;;;5.88;;
25129;SDS011;13308;50.860;13.664;2022-11-20T14:51:01;9.35;;;5.85;;
25129;SDS011;13308;50.860;13.664;2022-11-20T14:53:27;13.38;;;6.55;;
25129;SDS011;13308;50.860;13.664;2022-11-20T14:55:59;13.98;;;6.68;;
25129;SDS011;13308;50.860;13.664;2022-11-20T14:58:27;10.63;;;5.30;;
25129;SDS011;13308;50.860;13.664;2022-11-20T15:00:59;7.78;;;4.65;;
25129;SDS011;13308;50.860;13.664;2022-11-20T15:03:33;9.40;;;5.07;;
25129;SDS011;13308;50.860;13.664;2022-11-20T15:06:03;52.30;;;18.58;;
25129;SDS011;13308;50.860;13.664;2022-11-20T15:08:30;11.48;;;6.90;;
25129;SDS011;13308;50.860;13.664;2022-11-20T15:10:56;21.27;;;9.57;;
25129;SDS011;13308;50.860;13.664;2022-11-20T15:13:32;8.85;;;5.25;;
25129;SDS011;13308;50.860;13.664;2022-11-20T15:16:00;8.20;;;5.22;;
25129;SDS011;13308;50.860;13.664;2022-11-20T15:18:28;8.65;;;5.75;;
25129;SDS011;13308;50.860;13.664;2022-11-20T15:20:56;9.43;;;5.20;;
25129;SDS011;13308;50.860;13.664;2022-11-20T15:23:23;7.28;;;5.28;;
25129;SDS011;13308;50.860;13.664;2022-11-20T15:25:51;9.02;;;5.38;;
25129;SDS011;13308;50.860;13.664;2022-11-20T15:30:44;6.85;;;4.55;;
25129;SDS011;13308;50.860;13.664;2022-11-20T15:33:10;9.05;;;5.03;;
25129;SDS011;13308;50.860;13.664;2022-11-20T15:35:37;8.40;;;4.60;;
25129;SDS011;13308;50.860;13.664;2022-11-20T15:38:02;7.28;;;4.50;;
25129;SDS011;13308;50.860;13.664;2022-11-20T15:40:28;7.75;;;5.10;;
25129;SDS011;13308;50.860;13.664;2022-11-20T15:42:53;11.63;;;4.85;;
25129;SDS011;13308;50.860;13.664;2022-11-20T15:45:47;7.55;;;5.18;;
25129;SDS011;13308;50.860;13.664;2022-11-20T15:53:35;9.60;;;5.30;;
25129;SDS011;13308;50.860;13.664;2022-11-20T15:56:05;9.45;;;6.07;;
25129;SDS011;13308;50.860;13.664;2022-11-20T15:58:31;7.20;;;5.50;;
25129;SDS011;13308;50.860;13.664;2022-11-20T16:00:56;11.57;;;5.82;;
25129;SDS011;13308;50.860;13.664;2022-11-20T16:03:22;10.48;;;6.68;;
25129;SDS011;13308;50.860;13.664;2022-11-20T16:05:48;9.32;;;6.05;;
25129;SDS011;13308;50.860;13.664;2022-11-20T16:08:13;9.93;;;6.32;;
25129;SDS011;13308;50.860;13.664;2022-11-20T16:10:39;10.40;;;5.85;;
25129;SDS011;13308;50.860;13.664;2022-11-20T16:13:05;9.88;;;5.38;;
25129;SDS011;13308;50.860;13.664;2022-11-20T16:15:56;9.50;;;5.97;;
25129;SDS011;13308;50.860;13.664;2022-11-20T16:18:23;9.88;;;5.90;;
25129;SDS011;13308;50.860;13.664;2022-11-20T16:20:50;10.20;;;6.05;;
25129;SDS011;13308;50.860;13.664;2022-11-20T16:23:17;10.38;;;6.50;;
25129;SDS011;13308;50.860;13.664;2022-11-20T16:25:43;15.07;;;6.25;;
25129;SDS011;13308;50.860;13.664;2022-11-20T16:28:09;11.90;;;5.35;;
25129;SDS011;13308;50.860;13.664;2022-11-20T16:30:35;10.82;;;6.82;;
25129;SDS011;13308;50.860;13.664;2022-11-20T16:33:00;9.05;;;5.50;;
25129;SDS011;13308;50.860;13.664;2022-11-20T16:35:27;9.75;;;5.80;;
25129;SDS011;13308;50.860;13.664;2022-11-20T16:37:53;10.57;;;6.35;;
25129;SDS011;13308;50.860;13.664;2022-11-20T16:40:19;17.38;;;7.70;;
25129;SDS011;13308;50.860;13.664;2022-11-20T16:42:45;12.35;;;7.32;;
25129;SDS011;13308;50.860;13.664;2022-11-20T16:45:10;15.25;;;8.15;;
25129;SDS011;13308;50.860;13.664;2022-11-20T16:47:36;12.15;;;6.50;;
25129;SDS011;13308;50.860;13.664;2022-11-20T16:50:02;10.50;;;5.63;;
25129;SDS011;13308;50.860;13.664;2022-11-20T16:52:29;8.05;;;5.13;;
25129;SDS011;13308;50.860;13.664;2022-11-20T16:54:55;9.20;;;5.75;;
25129;SDS011;13308;50.860;13.664;2022-11-20T16:57:20;9.02;;;4.85;;
25129;SDS011;13308;50.860;13.664;2022-11-20T16:59:46;8.68;;;5.55;;
25129;SDS011;13308;50.860;13.664;2022-11-20T17:02:12;7.68;;;5.00;;
25129;SDS011;13308;50.860;13.664;2022-11-20T17:04:38;12.90;;;6.80;;
25129;SDS011;13308;50.860;13.664;2022-11-20T17:07:03;14.30;;;6.20;;
25129;SDS011;13308;50.860;13.664;2022-11-20T17:09:29;9.73;;;5.65;;
25129;SDS011;13308;50.860;13.664;2022-11-20T17:11:54;6.80;;;4.85;;
25129;SDS011;13308;50.860;13.664;2022-11-20T17:14:19;14.38;;;7.38;;
25129;SDS011;13308;50.860;13.664;2022-11-20T17:16:45;11.07;;;6.55;;
25129;SDS011;13308;50.860;13.664;2022-11-20T17:19:11;8.70;;;5.50;;
25129;SDS011;13308;50.860;13.664;2022-11-20T17:21:38;12.35;;;6.70;;
25129;SDS011;13308;50.860;13.664;2022-11-20T17:24:05;12.85;;;6.28;;
25129;SDS011;13308;50.860;13.664;2022-11-20T17:26:32;8.63;;;5.68;;
25129;SDS011;13308;50.860;13.664;2022-11-20T17:28:59;12.93;;;5.93;;
25129;SDS011;13308;50.860;13.664;2022-11-20T17:31:27;12.77;;;6.68;;
25129;SDS011;13308;50.860;13.664;2022-11-20T17:33:53;10.18;;;5.85;;
25129;SDS011;13308;50.860;13.664;2022-11-20T17:36:18;9.57;;;6.05;;
25129;SDS011;13308;50.860;13.664;2022-11-20T17:38:44;7.47;;;5.20;;
25129;SDS011;13308;50.860;13.664;2022-11-20T17:41:11;13.48;;;7.57;;
25129;SDS011;13308;50.860;13.664;2022-11-20T17:43:38;10.18;;;6.50;;
25129;SDS011;13308;50.860;13.664;2022-11-20T17:46:15;7.90;;;5.88;;
25129;SDS011;13308;50.860;13.664;2022-11-20T17:48:42;12.45;;;6.45;;
25129;SDS011;13308;50.860;13.664;2022-11-20T17:51:12;10.98;;;6.88;;
25129;SDS011;13308;50.860;13.664;2022-11-20T17:53:43;11.13;;;6.75;;
25129;SDS011;13308;50.860;13.664;2022-11-20T17:56:11;10.73;;;6.40;;
25129;SDS011;13308;50.860;13.664;2022-11-20T17:58:55;15.63;;;8.57;;
25129;SDS011;13308;50.860;13.664;2022-11-20T18:01:21;14.75;;;8.18;;
25129;SDS011;13308;50.860;13.664;2022-11-20T18:03:47;9.40;;;5.90;;
25129;SDS011;13308;50.860;13.664;2022-11-20T18:06:16;15.82;;;8.38;;
25129;SDS011;13308;50.860;13.664;2022-11-20T18:08:44;17.30;;;8.13;;
25129;SDS011;13308;50.860;13.664;2022-11-20T18:11:14;26.90;;;11.13;;
25129;SDS011;13308;50.860;13.664;2022-11-20T18:13:40;37.63;;;16.33;;
25129;SDS011;13308;50.860;13.664;2022-11-20T18:16:25;17.00;;;9.75;;
25129;SDS011;13308;50.860;13.664;2022-11-20T18:18:55;53.17;;;22.88;;
25129;SDS011;13308;50.860;13.664;2022-11-20T18:21:21;68.15;;;32.10;;
25129;SDS011;13308;50.860;13.664;2022-11-20T18:23:47;152.02;;;72.65;;
25129;SDS011;13308;50.860;13.664;2022-11-20T18:26:12;97.85;;;49.53;;
25129;SDS011;13308;50.860;13.664;2022-11-20T18:28:38;68.88;;;37.17;;
25129;SDS011;13308;50.860;13.664;2022-11-20T18:31:07;95.97;;;46.13;;
25129;SDS011;13308;50.860;13.664;2022-11-20T18:33:33;48.17;;;25.92;;
25129;SDS011;13308;50.860;13.664;2022-11-20T18:36:07;83.30;;;45.50;;
25129;SDS011;13308;50.860;13.664;2022-11-20T18:38:38;25.42;;;15.70;;
25129;SDS011;13308;50.860;13.664;2022-11-20T18:41:09;31.45;;;15.68;;
25129;SDS011;13308;50.860;13.664;2022-11-20T18:43:55;58.85;;;29.77;;
25129;SDS011;13308;50.860;13.664;2022-11-20T18:46:39;125.55;;;66.75;;
25129;SDS011;13308;50.860;13.664;2022-11-20T18:49:06;14.32;;;8.32;;
25129;SDS011;13308;50.860;13.664;2022-11-20T18:51:32;14.13;;;9.35;;
25129;SDS011;13308;50.860;13.664;2022-11-20T18:53:57;9.57;;;7.47;;
25129;SDS011;13308;50.860;13.664;2022-11-20T18:56:22;15.77;;;9.60;;
25129;SDS011;13308;50.860;13.664;2022-11-20T18:58:48;10.43;;;7.13;;
25129;SDS011;13308;50.860;13.664;2022-11-20T19:01:13;10.70;;;7.60;;
25129;SDS011;13308;50.860;13.664;2022-11-20T19:03:38;11.27;;;6.10;;
25129;SDS011;13308;50.860;13.664;2022-11-20T19:06:04;13.13;;;7.05;;
25129;SDS011;13308;50.860;13.664;2022-11-20T19:08:29;8.98;;;6.30;;
25129;SDS011;13308;50.860;13.664;2022-11-20T19:10:54;9.85;;;6.30;;
25129;SDS011;13308;50.860;13.664;2022-11-20T19:13:31;22.65;;;9.52;;
25129;SDS011;13308;50.860;13.664;2022-11-20T19:16:00;12.90;;;6.53;;
25129;SDS011;13308;50.860;13.664;2022-11-20T19:18:48;13.90;;;8.27;;
25129;SDS011;13308;50.860;13.664;2022-11-20T19:21:15;14.20;;;6.85;;
25129;SDS011;13308;50.860;13.664;2022-11-20T19:23:42;11.60;;;6.32;;
